Time;durP1;ratioP1;P1;durP2;ratioP2;P2;SDS_P1;SDS_P2;PMS_P1;PMS_P2;Temp;Humidity;BMP_temperature;BMP_pressure;BME280_temperature;BME280_humidity;BME280_pressure;Samples;Min_cycle;Max_cycle;Signal;HPM_P1;HPM_P2
2021/06/14 05:48:31;;;;;;;8.57;2.53;;;;;;;;;;5213632;23;20057;-70
2021/06/14 05:50:58;;;;;;;8.05;2.33;;;;;;;;;;4876880;29;20150;-67
2021/06/14 05:53:24;;;;;;;10.20;2.72;;;;;;;;;;4891519;29;20025;-65
2021/06/14 05:55:50;;;;;;;7.68;2.53;;;;;;;;;;4887376;29;20064;-63
2021/06/14 05:58:17;;;;;;;5.28;2.70;;;;;;;;;;4888164;29;20036;-62
2021/06/14 06:00:43;;;;;;;6.13;2.50;;;;;;;;;;4889036;29;20377;-63
2021/06/14 06:03:09;;;;;;;7.75;2.80;;;;;;;;;;4872824;29;20084;-67
2021/06/14 06:05:35;;;;;;;11.23;3.00;;;;;;;;;;4887977;29;20087;-66
2021/06/14 06:08:02;;;;;;;11.70;3.40;;;;;;;;;;4888754;29;20053;-67
2021/06/14 06:10:28;;;;;;;6.57;2.42;;;;;;;;;;4887170;29;20067;-66
2021/06/14 06:12:54;;;;;;;7.47;2.60;;;;;;;;;;4889594;29;20413;-66
2021/06/14 06:15:20;;;;;;;14.90;2.92;;;;;;;;;;4897448;29;20039;-67
2021/06/14 06:17:47;;;;;;;8.88;2.75;;;;;;;;;;4897447;29;20115;-67
2021/06/14 06:20:14;;;;;;;7.60;2.75;;;;;;;;;;4897936;29;20036;-68
2021/06/14 06:22:41;;;;;;;12.90;2.58;;;;;;;;;;4896869;29;20486;-65
2021/06/14 06:25:11;;;;;;;7.82;2.70;;;;;;;;;;4896780;29;20032;-66
2021/06/14 06:27:37;;;;;;;13.32;2.88;;;;;;;;;;4876815;29;20437;-62
2021/06/14 06:30:05;;;;;;;5.65;2.20;;;;;;;;;;4878285;29;20610;-65
2021/06/14 06:32:31;;;;;;;9.80;2.72;;;;;;;;;;4878734;29;20053;-65
2021/06/14 06:34:57;;;;;;;8.73;2.55;;;;;;;;;;4861752;29;20036;-65
2021/06/14 06:37:23;;;;;;;7.15;2.53;;;;;;;;;;4879042;29;20029;-65
2021/06/14 06:39:49;;;;;;;7.43;2.30;;;;;;;;;;4881216;29;20164;-65
2021/06/14 06:42:15;;;;;;;8.77;2.92;;;;;;;;;;4863270;29;20496;-63
2021/06/14 06:44:41;;;;;;;7.45;2.78;;;;;;;;;;4896296;29;20156;-66
2021/06/14 06:47:07;;;;;;;5.10;2.45;;;;;;;;;;4888504;29;20037;-65
2021/06/14 06:49:33;;;;;;;9.38;2.92;;;;;;;;;;4868190;29;20493;-68
2021/06/14 06:52:00;;;;;;;6.15;2.47;;;;;;;;;;4865759;29;20385;-65
2021/06/14 06:54:26;;;;;;;6.68;2.17;;;;;;;;;;4867463;29;20104;-63
2021/06/14 06:56:54;;;;;;;6.75;2.50;;;;;;;;;;4878922;29;20057;-68
2021/06/14 06:59:21;;;;;;;6.90;2.42;;;;;;;;;;4873595;29;20036;-67
2021/06/14 07:01:47;;;;;;;5.57;2.20;;;;;;;;;;4875393;29;20112;-68
2021/06/14 07:04:13;;;;;;;10.90;2.92;;;;;;;;;;4875716;29;20123;-65
2021/06/14 07:06:39;;;;;;;5.03;2.25;;;;;;;;;;4878767;29;20044;-65
2021/06/14 07:09:05;;;;;;;6.25;2.53;;;;;;;;;;4878858;29;20038;-65
2021/06/14 07:11:32;;;;;;;5.43;2.33;;;;;;;;;;4878482;29;20056;-64
2021/06/14 07:13:58;;;;;;;4.47;2.10;;;;;;;;;;4865371;29;20033;-65
2021/06/14 07:16:27;;;;;;;6.28;2.42;;;;;;;;;;4862444;29;20057;-66
2021/06/14 07:18:54;;;;;;;5.85;2.47;;;;;;;;;;4864584;29;20502;-72
2021/06/14 07:21:21;;;;;;;5.07;2.55;;;;;;;;;;4862101;29;20093;-70
2021/06/14 07:23:47;;;;;;;6.35;3.00;;;;;;;;;;4859346;29;20041;-69
2021/06/14 07:26:14;;;;;;;6.28;2.30;;;;;;;;;;4858709;29;20486;-69
2021/06/14 07:28:40;;;;;;;7.00;2.50;;;;;;;;;;4859840;29;20037;-65
2021/06/14 07:31:07;;;;;;;4.13;2.10;;;;;;;;;;4859241;29;20376;-68
2021/06/14 07:33:35;;;;;;;10.30;2.63;;;;;;;;;;4859540;29;20041;-66
2021/06/14 07:36:02;;;;;;;9.75;2.53;;;;;;;;;;4858963;29;20117;-70
2021/06/14 07:38:28;;;;;;;7.68;2.60;;;;;;;;;;4859634;29;20085;-65
2021/06/14 07:40:54;;;;;;;5.45;2.30;;;;;;;;;;4859482;29;20541;-68
2021/06/14 07:43:20;;;;;;;6.95;2.22;;;;;;;;;;4859344;29;20080;-71
2021/06/14 07:45:47;;;;;;;6.38;2.35;;;;;;;;;;4859148;29;20062;-69
2021/06/14 07:48:13;;;;;;;6.97;2.40;;;;;;;;;;4858888;29;20599;-70
2021/06/14 07:50:40;;;;;;;8.73;2.47;;;;;;;;;;4859069;29;20037;-64
2021/06/14 07:53:06;;;;;;;6.93;2.30;;;;;;;;;;4858967;29;20537;-72
2021/06/14 07:55:33;;;;;;;7.43;2.10;;;;;;;;;;4859072;29;20030;-69
2021/06/14 07:57:59;;;;;;;6.35;1.88;;;;;;;;;;4859306;29;20037;-73
2021/06/14 08:00:25;;;;;;;5.47;1.90;;;;;;;;;;4859176;29;20186;-73
2021/06/14 08:02:51;;;;;;;4.55;2.30;;;;;;;;;;4859214;29;20037;-71
2021/06/14 08:05:18;;;;;;;5.50;2.50;;;;;;;;;;4858860;29;20033;-70
2021/06/14 08:07:44;;;;;;;6.97;2.45;;;;;;;;;;4859202;29;20026;-69
2021/06/14 08:10:13;;;;;;;8.73;1.92;;;;;;;;;;4859012;29;20038;-71
2021/06/14 08:12:45;;;;;;;7.78;2.65;;;;;;;;;;4859038;29;20451;-70
2021/06/14 08:15:11;;;;;;;;;;;;;;;;;;4859339;29;20064;-72
2021/06/14 08:17:37;;;;;;;6.47;2.35;;;;;;;;;;4858192;29;20016;-77
2021/06/14 08:20:18;;;;;;;7.03;2.28;;;;;;;;;;4842252;29;20041;-72
2021/06/14 08:25:29;;;;;;;6.00;2.30;;;;;;;;;;4862259;29;20104;-66
2021/06/14 08:27:55;;;;;;;10.32;1.80;;;;;;;;;;4873370;29;20029;-68
2021/06/14 08:30:22;;;;;;;5.47;2.20;;;;;;;;;;4877123;29;20036;-70
2021/06/14 08:32:48;;;;;;;7.43;2.35;;;;;;;;;;4875816;29;20123;-74
2021/06/14 08:35:16;;;;;;;8.10;2.50;;;;;;;;;;4876282;29;20060;-67
2021/06/14 08:37:43;;;;;;;6.93;2.35;;;;;;;;;;4876025;29;20033;-66
2021/06/14 08:40:09;;;;;;;7.63;2.30;;;;;;;;;;4876048;29;20071;-67
2021/06/14 08:42:35;;;;;;;5.55;2.15;;;;;;;;;;4877192;29;20037;-66
2021/06/14 08:45:01;;;;;;;6.75;2.60;;;;;;;;;;4877385;29;20065;-65
2021/06/14 08:47:29;;;;;;;7.82;2.63;;;;;;;;;;4876704;29;20034;-65
2021/06/14 08:49:55;;;;;;;4.80;2.17;;;;;;;;;;4874212;29;20089;-66
2021/06/14 08:52:21;;;;;;;9.75;2.50;;;;;;;;;;4877334;29;20033;-68
2021/06/14 08:54:48;;;;;;;5.75;2.50;;;;;;;;;;4870754;29;20037;-66
2021/06/14 08:57:15;;;;;;;7.53;2.58;;;;;;;;;;4864143;29;20097;-66
2021/06/14 08:59:41;;;;;;;6.50;2.25;;;;;;;;;;4862874;29;20025;-65
2021/06/14 09:02:07;;;;;;;7.18;2.78;;;;;;;;;;4861070;29;20122;-64
2021/06/14 09:04:34;;;;;;;5.80;2.55;;;;;;;;;;4867511;29;20097;-66
2021/06/14 09:07:00;;;;;;;5.55;2.45;;;;;;;;;;4865518;29;20502;-65
2021/06/14 09:09:28;;;;;;;5.07;2.08;;;;;;;;;;4867453;29;20097;-65
2021/06/14 09:11:55;;;;;;;6.10;2.30;;;;;;;;;;4862117;29;20095;-65
2021/06/14 09:14:23;;;;;;;12.73;2.15;;;;;;;;;;4861729;29;20474;-65
2021/06/14 09:16:50;;;;;;;6.20;2.20;;;;;;;;;;4871242;29;20044;-62
2021/06/14 09:19:26;;;;;;;6.25;2.30;;;;;;;;;;4869060;29;20039;-65
2021/06/14 09:21:55;;;;;;;7.93;2.50;;;;;;;;;;4880541;29;20381;-67
2021/06/14 09:24:22;;;;;;;9.27;2.45;;;;;;;;;;4880011;29;20069;-65
2021/06/14 09:26:48;;;;;;;5.65;2.20;;;;;;;;;;4873115;29;20088;-68
2021/06/14 09:29:15;;;;;;;8.48;2.25;;;;;;;;;;4869789;29;20401;-65
2021/06/14 09:31:41;;;;;;;9.60;2.50;;;;;;;;;;4869630;29;20520;-65
2021/06/14 09:34:08;;;;;;;14.75;2.60;;;;;;;;;;4868466;29;20037;-64
2021/06/14 09:36:34;;;;;;;23.52;3.38;;;;;;;;;;4871574;29;20378;-66
2021/06/14 09:39:08;;;;;;;13.95;3.17;;;;;;;;;;4867348;29;20034;-67
2021/06/14 09:41:39;;;;;;;9.77;2.72;;;;;;;;;;4870091;29;20101;-64
2021/06/14 09:44:05;;;;;;;10.48;3.40;;;;;;;;;;4869489;29;20036;-65
2021/06/14 09:46:33;;;;;;;6.65;2.78;;;;;;;;;;4862592;29;20025;-63
2021/06/14 09:49:01;;;;;;;8.32;3.33;;;;;;;;;;4865227;29;20060;-64
2021/06/14 09:51:29;;;;;;;10.20;3.17;;;;;;;;;;4868375;29;20021;-63
2021/06/14 09:53:56;;;;;;;6.88;2.75;;;;;;;;;;4872368;29;20045;-65
2021/06/14 09:56:24;;;;;;;11.23;3.28;;;;;;;;;;4863647;29;20029;-62
2021/06/14 09:58:54;;;;;;;5.90;2.53;;;;;;;;;;4866797;29;20397;-62
2021/06/14 10:01:26;;;;;;;6.13;2.35;;;;;;;;;;4867586;29;20030;-65
2021/06/14 10:03:53;;;;;;;8.10;2.65;;;;;;;;;;4860920;29;20042;-65
2021/06/14 10:06:31;;;;;;;8.30;2.65;;;;;;;;;;4863085;29;20121;-65
2021/06/14 10:08:57;;;;;;;6.10;2.40;;;;;;;;;;4868686;29;20037;-65
2021/06/14 10:11:23;;;;;;;5.18;2.33;;;;;;;;;;4870565;29;20037;-64
2021/06/14 10:13:50;;;;;;;9.27;2.67;;;;;;;;;;4875341;29;20493;-64
2021/06/14 10:16:24;;;;;;;7.05;2.58;;;;;;;;;;4870706;29;20034;-66
2021/06/14 10:18:58;;;;;;;9.73;2.80;;;;;;;;;;4866619;29;20045;-64
2021/06/14 10:21:31;;;;;;;7.25;2.50;;;;;;;;;;4869346;29;20033;-65
2021/06/14 10:23:59;;;;;;;6.82;2.47;;;;;;;;;;4860194;29;20097;-63
2021/06/14 10:26:26;;;;;;;6.78;2.25;;;;;;;;;;4860365;29;20101;-64
2021/06/14 10:28:53;;;;;;;6.93;2.63;;;;;;;;;;4846227;29;20446;-66
2021/06/14 10:31:19;;;;;;;6.25;3.00;;;;;;;;;;4860786;29;20034;-66
2021/06/14 10:33:49;;;;;;;10.15;2.70;;;;;;;;;;4860477;29;20116;-65
2021/06/14 10:36:16;;;;;;;8.65;3.53;;;;;;;;;;4859110;29;20029;-66
2021/06/14 10:38:44;;;;;;;5.55;2.33;;;;;;;;;;4859137;29;20033;-66
2021/06/14 10:41:10;;;;;;;7.93;2.00;;;;;;;;;;4859234;29;20025;-65
2021/06/14 10:43:38;;;;;;;5.38;2.58;;;;;;;;;;4866122;29;20123;-64
2021/06/14 10:46:05;;;;;;;8.98;2.35;;;;;;;;;;4868753;29;20092;-66
2021/06/14 10:48:32;;;;;;;8.68;2.78;;;;;;;;;;4869073;29;20126;-67
2021/06/14 10:51:03;;;;;;;7.47;2.67;;;;;;;;;;4869925;29;20030;-65
2021/06/14 10:53:32;;;;;;;7.80;2.60;;;;;;;;;;4871081;29;20033;-67
2021/06/14 10:56:03;;;;;;;7.57;3.00;;;;;;;;;;4859772;29;20037;-66
2021/06/14 10:58:30;;;;;;;8.20;3.20;;;;;;;;;;4859901;29;20040;-66
2021/06/14 11:00:59;;;;;;;8.48;3.05;;;;;;;;;;4859800;29;20037;-67
2021/06/14 11:03:36;;;;;;;9.60;3.15;;;;;;;;;;4859674;29;20042;-66
2021/06/14 11:06:02;;;;;;;10.63;3.30;;;;;;;;;;4859519;29;20065;-67
2021/06/14 11:08:30;;;;;;;7.90;2.83;;;;;;;;;;4861029;29;20041;-67
2021/06/14 11:11:03;;;;;;;8.98;3.38;;;;;;;;;;4870167;29;20108;-67
2021/06/14 11:13:29;;;;;;;5.90;2.88;;;;;;;;;;4871279;29;20037;-67
2021/06/14 11:15:56;;;;;;;5.95;2.25;;;;;;;;;;4868506;29;20056;-67
2021/06/14 11:18:23;;;;;;;5.45;2.10;;;;;;;;;;4867472;29;20044;-66
2021/06/14 11:20:50;;;;;;;6.55;2.30;;;;;;;;;;4869559;29;20036;-66
2021/06/14 11:23:27;;;;;;;3.80;1.63;;;;;;;;;;4851439;29;20486;-67
2021/06/14 11:25:54;;;;;;;5.43;1.88;;;;;;;;;;4867862;29;20029;-67
2021/06/14 11:28:34;;;;;;;2.97;1.58;;;;;;;;;;4850917;29;20481;-67
2021/06/14 11:31:01;;;;;;;12.98;2.25;;;;;;;;;;4871353;29;20116;-67
2021/06/14 11:33:28;;;;;;;9.38;2.10;;;;;;;;;;4877935;29;20039;-66
2021/06/14 11:35:58;;;;;;;7.30;2.03;;;;;;;;;;4878197;29;20049;-66
2021/06/14 11:38:24;;;;;;;6.72;1.80;;;;;;;;;;4859756;29;20060;-67
2021/06/14 11:40:52;;;;;;;5.15;1.75;;;;;;;;;;4868090;29;20029;-66
2021/06/14 11:43:18;;;;;;;5.20;1.40;;;;;;;;;;4868156;29;20032;-68
2021/06/14 11:45:48;;;;;;;4.20;1.52;;;;;;;;;;4869428;29;20506;-66
2021/06/14 11:48:22;;;;;;;4.90;1.92;;;;;;;;;;4863203;29;20054;-68
2021/06/14 11:50:48;;;;;;;4.90;1.70;;;;;;;;;;4859633;29;20068;-67
2021/06/14 11:53:14;;;;;;;4.10;1.40;;;;;;;;;;4867509;29;20032;-66
2021/06/14 11:55:44;;;;;;;5.18;1.35;;;;;;;;;;4869054;29;20029;-66
2021/06/14 11:58:12;;;;;;;8.30;1.63;;;;;;;;;;4865582;29;20117;-67
2021/06/14 12:00:38;;;;;;;5.55;1.42;;;;;;;;;;4872212;29;20036;-67
2021/06/14 12:03:17;;;;;;;10.40;1.50;;;;;;;;;;4866966;29;20037;-64
2021/06/14 12:05:43;;;;;;;6.30;1.42;;;;;;;;;;4871401;29;20130;-64
2021/06/14 12:08:10;;;;;;;5.18;1.27;;;;;;;;;;4877506;29;20067;-66
2021/06/14 12:10:37;;;;;;;4.47;1.60;;;;;;;;;;4877487;29;20044;-66
2021/06/14 12:13:04;;;;;;;3.33;1.42;;;;;;;;;;4877135;29;20029;-65
2021/06/14 12:15:30;;;;;;;4.88;1.70;;;;;;;;;;4875625;29;20097;-66
2021/06/14 12:17:56;;;;;;;8.02;2.45;;;;;;;;;;4864178;29;20562;-65
2021/06/14 12:20:24;;;;;;;6.22;2.45;;;;;;;;;;4858885;29;20069;-65
2021/06/14 12:22:58;;;;;;;5.07;1.70;;;;;;;;;;4866649;29;20033;-65
2021/06/14 12:25:24;;;;;;;5.15;2.22;;;;;;;;;;4876915;29;20041;-66
2021/06/14 12:27:57;;;;;;;3.50;1.60;;;;;;;;;;4877439;29;20477;-65
2021/06/14 12:30:25;;;;;;;3.40;1.33;;;;;;;;;;4874309;29;20037;-65
2021/06/14 12:32:52;;;;;;;5.03;1.50;;;;;;;;;;4872758;29;20037;-66
2021/06/14 12:35:18;;;;;;;5.43;2.33;;;;;;;;;;4870812;29;20021;-66
2021/06/14 12:37:44;;;;;;;7.55;2.70;;;;;;;;;;4866273;29;20048;-65
2021/06/14 12:40:11;;;;;;;5.57;2.78;;;;;;;;;;4860748;29;20034;-65
2021/06/14 12:42:38;;;;;;;4.80;3.08;;;;;;;;;;4861381;29;20071;-66
2021/06/14 12:45:08;;;;;;;4.93;3.00;;;;;;;;;;4878321;29;20045;-65
2021/06/14 12:47:36;;;;;;;6.88;2.80;;;;;;;;;;4880393;29;20079;-64
2021/06/14 12:50:03;;;;;;;4.70;2.50;;;;;;;;;;4880869;29;20551;-66
2021/06/14 12:52:31;;;;;;;8.77;3.80;;;;;;;;;;4880671;29;20036;-65
2021/06/14 12:54:58;;;;;;;13.90;5.43;;;;;;;;;;4880514;29;20068;-65
2021/06/14 12:57:37;;;;;;;7.93;3.70;;;;;;;;;;4880641;29;20047;-65
2021/06/14 13:00:07;;;;;;;5.05;2.75;;;;;;;;;;4880649;29;20047;-68
2021/06/14 13:02:33;;;;;;;6.10;2.90;;;;;;;;;;4880934;29;20396;-68
2021/06/14 13:05:08;;;;;;;10.50;4.45;;;;;;;;;;4879997;29;20048;-68
2021/06/14 13:07:34;;;;;;;9.55;3.58;;;;;;;;;;4880864;29;20525;-70
2021/06/14 13:10:01;;;;;;;5.93;2.10;;;;;;;;;;4880738;29;20025;-70
2021/06/14 13:12:29;;;;;;;6.32;2.00;;;;;;;;;;4879251;29;20549;-69
2021/06/14 13:15:06;;;;;;;5.10;2.60;;;;;;;;;;4880485;29;20053;-68
2021/06/14 13:17:32;;;;;;;4.47;1.70;;;;;;;;;;4880485;29;20045;-65
2021/06/14 13:19:58;;;;;;;3.33;1.80;;;;;;;;;;4880192;29;20036;-68
2021/06/14 13:22:24;;;;;;;4.75;2.00;;;;;;;;;;4880522;29;20470;-68
2021/06/14 13:24:50;;;;;;;8.70;2.10;;;;;;;;;;4880486;29;20052;-66
2021/06/14 13:27:16;;;;;;;4.38;1.70;;;;;;;;;;4879941;29;20025;-67
2021/06/14 13:29:52;;;;;;;7.60;2.10;;;;;;;;;;4880411;29;20031;-68
2021/06/14 13:32:24;;;;;;;4.65;1.80;;;;;;;;;;4880398;29;20029;-65
2021/06/14 13:35:02;;;;;;;8.45;2.28;;;;;;;;;;4881303;29;20040;-65
2021/06/14 13:37:38;;;;;;;5.45;2.28;;;;;;;;;;4881308;29;20040;-65
2021/06/14 13:40:08;;;;;;;5.40;2.10;;;;;;;;;;4880932;29;20559;-67
2021/06/14 13:42:41;;;;;;;5.90;2.47;;;;;;;;;;4880888;29;20036;-71
2021/06/14 13:45:07;;;;;;;7.13;2.25;;;;;;;;;;4881023;29;20049;-69
2021/06/14 13:47:33;;;;;;;8.57;1.90;;;;;;;;;;4880618;29;20029;-71
2021/06/14 13:50:09;;;;;;;7.22;1.88;;;;;;;;;;4880800;29;20067;-70
2021/06/14 13:52:36;;;;;;;6.70;2.00;;;;;;;;;;4880760;29;20159;-69
2021/06/14 13:55:02;;;;;;;24.05;2.90;;;;;;;;;;4881074;29;20044;-70
2021/06/14 13:57:28;;;;;;;8.77;2.15;;;;;;;;;;4880571;29;20028;-71
2021/06/14 14:00:08;;;;;;;4.82;1.85;;;;;;;;;;4880726;29;20029;-68
2021/06/14 14:02:44;;;;;;;6.05;2.17;;;;;;;;;;4878678;29;20062;-69
2021/06/14 14:05:10;;;;;;;4.75;1.50;;;;;;;;;;4880641;29;20435;-69
2021/06/14 14:07:36;;;;;;;4.03;1.55;;;;;;;;;;4880733;29;20085;-70
2021/06/14 14:10:02;;;;;;;8.48;2.25;;;;;;;;;;4880744;29;20515;-68
2021/06/14 14:12:28;;;;;;;4.22;1.50;;;;;;;;;;4880420;29;20035;-69
2021/06/14 14:14:54;;;;;;;2.92;1.55;;;;;;;;;;4880718;29;20112;-70
2021/06/14 14:17:20;;;;;;;5.25;1.67;;;;;;;;;;4880477;29;20036;-69
2021/06/14 14:19:51;;;;;;;5.65;1.60;;;;;;;;;;4880566;29;20029;-69
2021/06/14 14:22:17;;;;;;;4.05;1.48;;;;;;;;;;4879982;29;20033;-68
2021/06/14 14:24:43;;;;;;;4.82;1.75;;;;;;;;;;4880435;29;20044;-66
2021/06/14 14:27:09;;;;;;;5.40;2.00;;;;;;;;;;4880223;29;20029;-69
2021/06/14 14:29:37;;;;;;;7.70;1.65;;;;;;;;;;4880428;29;20059;-70
2021/06/14 14:32:04;;;;;;;6.38;2.17;;;;;;;;;;4880237;29;20553;-69
2021/06/14 14:34:36;;;;;;;3.33;1.40;;;;;;;;;;4880272;29;20102;-69
2021/06/14 14:37:03;;;;;;;3.83;1.45;;;;;;;;;;4880179;29;20030;-70
2021/06/14 14:39:31;;;;;;;3.28;1.70;;;;;;;;;;4879983;29;20072;-69
2021/06/14 14:41:58;;;;;;;6.50;1.40;;;;;;;;;;4879513;29;20033;-70
2021/06/14 14:44:25;;;;;;;3.90;1.67;;;;;;;;;;4877655;29;20041;-71
2021/06/14 14:46:52;;;;;;;3.88;1.55;;;;;;;;;;4879727;29;20028;-68
2021/06/14 14:49:26;;;;;;;6.13;1.60;;;;;;;;;;4877224;29;20080;-68
2021/06/14 14:51:59;;;;;;;6.90;1.98;;;;;;;;;;4875825;29;20052;-65
2021/06/14 14:54:27;;;;;;;6.60;1.90;;;;;;;;;;4879829;29;20033;-68
2021/06/14 14:56:53;;;;;;;3.33;1.75;;;;;;;;;;4879774;29;20057;-69
2021/06/14 14:59:20;;;;;;;3.22;1.80;;;;;;;;;;4880109;29;20221;-71
2021/06/14 15:01:46;;;;;;;4.82;1.90;;;;;;;;;;4880249;29;20025;-72
2021/06/14 15:04:12;;;;;;;3.45;1.65;;;;;;;;;;4874759;29;20396;-73
2021/06/14 15:06:38;;;;;;;3.00;1.60;;;;;;;;;;4874889;29;20044;-71
2021/06/14 15:09:05;;;;;;;3.33;1.52;;;;;;;;;;4869935;29;20037;-70
2021/06/14 15:11:32;;;;;;;3.17;1.45;;;;;;;;;;4865801;29;20035;-73
2021/06/14 15:13:58;;;;;;;5.25;1.80;;;;;;;;;;4860970;29;20115;-71
2021/06/14 15:16:24;;;;;;;3.33;1.60;;;;;;;;;;4861203;29;20027;-71
2021/06/14 15:18:50;;;;;;;3.78;1.48;;;;;;;;;;4868710;29;20036;-71
2021/06/14 15:21:17;;;;;;;3.08;1.50;;;;;;;;;;4860740;29;20081;-71
2021/06/14 15:23:47;;;;;;;5.50;1.70;;;;;;;;;;4860985;29;20073;-72
2021/06/14 15:26:15;;;;;;;2.92;1.30;;;;;;;;;;4860823;29;20381;-70
2021/06/14 15:28:42;;;;;;;3.80;1.60;;;;;;;;;;4864550;29;20085;-70
2021/06/14 15:31:08;;;;;;;5.68;1.77;;;;;;;;;;4863840;29;20037;-71
2021/06/14 15:33:35;;;;;;;4.03;1.45;;;;;;;;;;4860867;29;20061;-70
2021/06/14 15:36:01;;;;;;;6.25;1.75;;;;;;;;;;4867363;29;20021;-71
2021/06/14 15:38:28;;;;;;;4.40;1.23;;;;;;;;;;4879210;29;20032;-70
2021/06/14 15:40:54;;;;;;;3.63;1.40;;;;;;;;;;4879302;29;20036;-70
2021/06/14 15:43:21;;;;;;;2.72;1.80;;;;;;;;;;4879010;29;20470;-70
2021/06/14 15:45:47;;;;;;;5.50;1.73;;;;;;;;;;4879252;29;20053;-70
2021/06/14 15:48:13;;;;;;;3.70;1.70;;;;;;;;;;4878739;29;20148;-71
2021/06/14 15:50:40;;;;;;;3.92;2.10;;;;;;;;;;4882467;29;20037;-70
2021/06/14 15:53:07;;;;;;;5.72;1.80;;;;;;;;;;4879207;29;20033;-70
2021/06/14 15:55:33;;;;;;;5.03;1.80;;;;;;;;;;4844250;29;20041;-71
2021/06/14 15:58:00;;;;;;;4.53;1.50;;;;;;;;;;4876939;29;20112;-70
2021/06/14 16:00:27;;;;;;;5.82;1.60;;;;;;;;;;4875386;29;20041;-70
2021/06/14 16:02:54;;;;;;;7.00;2.20;;;;;;;;;;4877257;29;20085;-69
2021/06/14 16:05:21;;;;;;;4.25;1.60;;;;;;;;;;4860728;29;20125;-70
2021/06/14 16:07:47;;;;;;;3.00;1.30;;;;;;;;;;4877578;29;20033;-69
2021/06/14 16:10:14;;;;;;;3.90;1.70;;;;;;;;;;4874107;29;20033;-70
2021/06/14 16:12:41;;;;;;;3.05;1.73;;;;;;;;;;4875656;29;20025;-70
2021/06/14 16:15:09;;;;;;;5.00;1.88;;;;;;;;;;4870216;29;20055;-69
2021/06/14 16:17:35;;;;;;;4.55;1.92;;;;;;;;;;4876217;29;20049;-69
2021/06/14 16:20:01;;;;;;;5.15;2.05;;;;;;;;;;4866750;29;20021;-68
2021/06/14 16:22:27;;;;;;;4.47;1.80;;;;;;;;;;4867929;29;20025;-72
2021/06/14 16:24:53;;;;;;;6.00;1.80;;;;;;;;;;4863631;29;20038;-70
2021/06/14 16:27:19;;;;;;;4.30;1.90;;;;;;;;;;4867863;29;20029;-72
2021/06/14 16:29:46;;;;;;;4.45;2.97;;;;;;;;;;4868590;29;20032;-72
2021/06/14 16:32:30;;;;;;;3.83;1.70;;;;;;;;;;4868436;29;20026;-70
2021/06/14 16:34:56;;;;;;;6.88;1.85;;;;;;;;;;4867384;29;20025;-72
2021/06/14 16:37:22;;;;;;;5.45;2.20;;;;;;;;;;4868238;29;20115;-70
2021/06/14 16:39:48;;;;;;;4.57;1.85;;;;;;;;;;4858957;29;20032;-72
2021/06/14 16:42:14;;;;;;;6.35;2.03;;;;;;;;;;4862927;29;20085;-68
2021/06/14 16:44:40;;;;;;;5.22;2.00;;;;;;;;;;4864957;29;20053;-70
2021/06/14 16:47:06;;;;;;;5.55;2.30;;;;;;;;;;4858652;29;21983;-70
2021/06/14 16:49:33;;;;;;;5.38;1.90;;;;;;;;;;4857900;29;20589;-69
2021/06/14 16:51:59;;;;;;;5.18;1.85;;;;;;;;;;4858641;29;20142;-68
2021/06/14 16:54:26;;;;;;;5.07;1.98;;;;;;;;;;4857930;29;20033;-70
2021/06/14 16:56:52;;;;;;;4.70;1.50;;;;;;;;;;4857047;29;20030;-71
2021/06/14 16:59:19;;;;;;;5.18;1.98;;;;;;;;;;4859272;29;20109;-70
2021/06/14 17:01:49;;;;;;;8.68;1.85;;;;;;;;;;4866017;29;20041;-72
2021/06/14 17:04:16;;;;;;;5.63;1.85;;;;;;;;;;4863357;29;20047;-70
2021/06/14 17:06:42;;;;;;;5.15;1.80;;;;;;;;;;4866798;29;20100;-70
2021/06/14 17:09:09;;;;;;;5.57;1.85;;;;;;;;;;4867965;29;20824;-71
2021/06/14 17:11:35;;;;;;;4.78;1.60;;;;;;;;;;4867222;29;20029;-70
2021/06/14 17:14:01;;;;;;;4.03;1.77;;;;;;;;;;4851866;29;20041;-70
2021/06/14 17:16:27;;;;;;;3.25;1.55;;;;;;;;;;4861751;29;20404;-70
2021/06/14 17:18:53;;;;;;;2.45;1.33;;;;;;;;;;4868067;29;20038;-71
2021/06/14 17:21:20;;;;;;;3.28;1.65;;;;;;;;;;4866561;29;20018;-70
2021/06/14 17:23:46;;;;;;;6.20;2.03;;;;;;;;;;4867740;29;20092;-72
2021/06/14 17:26:12;;;;;;;5.45;1.70;;;;;;;;;;4867340;29;20052;-74
2021/06/14 17:28:39;;;;;;;4.78;2.05;;;;;;;;;;4869900;29;20040;-72
2021/06/14 17:31:06;;;;;;;4.07;2.25;;;;;;;;;;4860554;29;20025;-70
2021/06/14 17:33:32;;;;;;;6.93;2.33;;;;;;;;;;4860663;29;20021;-69
2021/06/14 17:35:59;;;;;;;4.20;1.85;;;;;;;;;;4860794;29;20124;-70
2021/06/14 17:38:25;;;;;;;6.00;2.00;;;;;;;;;;4873089;29;20789;-68
2021/06/14 17:40:51;;;;;;;5.65;1.77;;;;;;;;;;4865423;29;20045;-69
2021/06/14 17:43:18;;;;;;;2.67;1.45;;;;;;;;;;4863932;29;20453;-70
2021/06/14 17:45:44;;;;;;;3.92;1.45;;;;;;;;;;4870721;29;20024;-68
2021/06/14 17:48:10;;;;;;;4.95;2.22;;;;;;;;;;4870821;29;20062;-68
2021/06/14 17:50:37;;;;;;;3.90;1.80;;;;;;;;;;4869609;29;20381;-69
2021/06/14 17:53:04;;;;;;;4.80;1.73;;;;;;;;;;4879987;29;20033;-70
2021/06/14 17:55:31;;;;;;;5.82;2.17;;;;;;;;;;4880987;29;20364;-67
2021/06/14 17:57:57;;;;;;;6.78;2.28;;;;;;;;;;4878615;29;20044;-70
2021/06/14 18:00:24;;;;;;;4.68;2.13;;;;;;;;;;4879933;29;20033;-68
2021/06/14 18:02:50;;;;;;;4.63;2.10;;;;;;;;;;4879631;29;20109;-69
2021/06/14 18:05:17;;;;;;;5.53;2.17;;;;;;;;;;4879079;29;20089;-69
2021/06/14 18:07:44;;;;;;;5.22;1.83;;;;;;;;;;4877573;29;20473;-70
2021/06/14 18:10:10;;;;;;;7.07;2.28;;;;;;;;;;4880002;29;20419;-70
2021/06/14 18:12:37;;;;;;;4.55;2.45;;;;;;;;;;4879724;29;20033;-70
2021/06/14 18:15:04;;;;;;;4.65;2.10;;;;;;;;;;4879655;29;20460;-69
2021/06/14 18:17:31;;;;;;;5.72;2.60;;;;;;;;;;4879277;29;20489;-69
2021/06/14 18:19:57;;;;;;;5.13;2.22;;;;;;;;;;4879174;29;20037;-69
2021/06/14 18:22:24;;;;;;;5.78;2.40;;;;;;;;;;4879482;29;20100;-68
2021/06/14 18:24:52;;;;;;;6.78;2.08;;;;;;;;;;4879578;29;20078;-68
2021/06/14 18:27:19;;;;;;;4.80;2.67;;;;;;;;;;4879418;29;20025;-67
2021/06/14 18:29:45;;;;;;;5.93;2.05;;;;;;;;;;4879403;29;20028;-67
2021/06/14 18:32:11;;;;;;;5.18;2.35;;;;;;;;;;4879299;29;20025;-67
2021/06/14 18:34:37;;;;;;;5.13;2.05;;;;;;;;;;4879129;29;20120;-67
2021/06/14 18:37:04;;;;;;;6.30;2.10;;;;;;;;;;4878719;29;20402;-68
2021/06/14 18:39:30;;;;;;;6.10;2.33;;;;;;;;;;4877745;29;20366;-67
2021/06/14 18:41:57;;;;;;;3.83;2.00;;;;;;;;;;4879100;29;20032;-69
2021/06/14 18:44:23;;;;;;;7.43;2.50;;;;;;;;;;4878850;29;20064;-66
2021/06/14 18:46:49;;;;;;;5.07;1.73;;;;;;;;;;4870381;29;20328;-68
2021/06/14 18:49:16;;;;;;;5.15;2.05;;;;;;;;;;4869705;29;20514;-67
2021/06/14 18:51:42;;;;;;;4.20;2.17;;;;;;;;;;4870977;29;20466;-68
2021/06/14 18:54:10;;;;;;;5.65;2.20;;;;;;;;;;4860054;29;20100;-67
2021/06/14 18:56:36;;;;;;;7.18;2.13;;;;;;;;;;4866133;29;20029;-67
2021/06/14 18:59:02;;;;;;;3.47;1.83;;;;;;;;;;4868218;29;20509;-67
2021/06/14 19:01:28;;;;;;;8.48;2.13;;;;;;;;;;4868691;29;20025;-70
2021/06/14 19:03:55;;;;;;;3.38;1.85;;;;;;;;;;4867493;29;20075;-67
2021/06/14 19:06:21;;;;;;;3.95;1.85;;;;;;;;;;4867697;29;20389;-69
2021/06/14 19:08:47;;;;;;;3.15;2.00;;;;;;;;;;4860861;29;20077;-68
2021/06/14 19:11:14;;;;;;;4.30;2.33;;;;;;;;;;4859742;29;20033;-68
2021/06/14 19:13:40;;;;;;;6.20;2.20;;;;;;;;;;4859809;29;20109;-67
2021/06/14 19:16:06;;;;;;;3.45;1.95;;;;;;;;;;4859687;29;20036;-69
2021/06/14 19:18:33;;;;;;;4.63;1.90;;;;;;;;;;4859649;29;20158;-67
2021/06/14 19:20:59;;;;;;;5.60;2.08;;;;;;;;;;4859806;29;20037;-67
2021/06/14 19:23:25;;;;;;;4.18;1.98;;;;;;;;;;4842778;29;20087;-69
2021/06/14 19:25:52;;;;;;;5.30;2.05;;;;;;;;;;4867887;29;20029;-68
2021/06/14 19:28:18;;;;;;;5.20;1.98;;;;;;;;;;4862052;29;20065;-68
2021/06/14 19:30:44;;;;;;;5.72;2.03;;;;;;;;;;4858992;29;20029;-66
2021/06/14 19:33:10;;;;;;;5.55;2.50;;;;;;;;;;4876567;29;20097;-69
2021/06/14 19:35:36;;;;;;;8.10;2.38;;;;;;;;;;4877785;29;20120;-68
2021/06/14 19:38:02;;;;;;;5.68;2.50;;;;;;;;;;4877667;29;20136;-66
2021/06/14 19:40:28;;;;;;;4.22;2.22;;;;;;;;;;4874703;29;20052;-68
2021/06/14 19:42:54;;;;;;;6.82;2.00;;;;;;;;;;4877640;29;20029;-67
2021/06/14 19:45:20;;;;;;;6.53;2.17;;;;;;;;;;4868702;29;20079;-69
2021/06/14 19:47:47;;;;;;;6.38;2.15;;;;;;;;;;4865751;29;20620;-70
2021/06/14 19:50:15;;;;;;;13.07;8.45;;;;;;;;;;4875913;29;20100;-66
2021/06/14 19:52:41;;;;;;;8.50;3.45;;;;;;;;;;4877703;29;20068;-67
2021/06/14 19:55:09;;;;;;;6.20;2.42;;;;;;;;;;4877810;29;20089;-67
2021/06/14 19:57:35;;;;;;;6.25;2.53;;;;;;;;;;4866760;29;20036;-68
2021/06/14 20:00:01;;;;;;;6.10;2.50;;;;;;;;;;4877213;29;20029;-68
2021/06/14 20:02:27;;;;;;;5.22;2.55;;;;;;;;;;4868365;29;20025;-65
2021/06/14 20:04:54;;;;;;;8.52;2.63;;;;;;;;;;4869019;29;20104;-65
2021/06/14 20:07:20;;;;;;;8.15;3.40;;;;;;;;;;4868759;29;20028;-67
2021/06/14 20:09:47;;;;;;;5.53;2.83;;;;;;;;;;4868235;29;20029;-67
2021/06/14 20:12:13;;;;;;;6.18;3.08;;;;;;;;;;4866506;29;20033;-67
2021/06/14 20:14:39;;;;;;;8.40;3.70;;;;;;;;;;4864429;29;20025;-67
2021/06/14 20:17:05;;;;;;;7.70;2.75;;;;;;;;;;4868869;29;20025;-68
2021/06/14 20:19:31;;;;;;;7.88;2.60;;;;;;;;;;4870328;29;20037;-68
2021/06/14 20:21:57;;;;;;;6.72;2.88;;;;;;;;;;4851970;29;20407;-68
2021/06/14 20:24:23;;;;;;;7.72;3.25;;;;;;;;;;4867162;29;20045;-68
2021/06/14 20:26:49;;;;;;;8.07;3.25;;;;;;;;;;4858508;29;20267;-69
2021/06/14 20:29:15;;;;;;;8.80;3.10;;;;;;;;;;4859076;29;20548;-69
2021/06/14 20:31:41;;;;;;;8.52;2.40;;;;;;;;;;4858738;29;20048;-68
2021/06/14 20:34:08;;;;;;;4.57;2.63;;;;;;;;;;4858892;29;20038;-70